sensor_id;sensor_type;location;lat;lon;timestamp;P1;durP1;ratioP1;P2;durP2;ratioP2
10701;SDS011;5402;50.004;8.246;2023-06-10T00:00:02;6.97;;;6.25;;
10701;SDS011;5402;50.004;8.246;2023-06-10T00:02:32;7.65;;;6.30;;
10701;SDS011;5402;50.004;8.246;2023-06-10T00:04:58;7.78;;;7.07;;
10701;SDS011;5402;50.004;8.246;2023-06-10T00:07:25;7.53;;;6.60;;
10701;SDS011;5402;50.004;8.246;2023-06-10T00:09:52;7.43;;;6.72;;
10701;SDS011;5402;50.004;8.246;2023-06-10T00:12:20;7.70;;;6.85;;
10701;SDS011;5402;50.004;8.246;2023-06-10T00:14:47;8.73;;;7.05;;
10701;SDS011;5402;50.004;8.246;2023-06-10T00:17:16;7.50;;;6.80;;
10701;SDS011;5402;50.004;8.246;2023-06-10T00:19:43;8.30;;;6.63;;
10701;SDS011;5402;50.004;8.246;2023-06-10T00:22:11;7.35;;;6.65;;
10701;SDS011;5402;50.004;8.246;2023-06-10T00:24:39;7.75;;;6.47;;
10701;SDS011;5402;50.004;8.246;2023-06-10T00:27:06;8.57;;;6.63;;
10701;SDS011;5402;50.004;8.246;2023-06-10T00:29:33;7.82;;;6.35;;
10701;SDS011;5402;50.004;8.246;2023-06-10T00:31:59;7.95;;;6.72;;
10701;SDS011;5402;50.004;8.246;2023-06-10T00:34:27;7.72;;;6.80;;
10701;SDS011;5402;50.004;8.246;2023-06-10T00:36:54;7.13;;;6.43;;
10701;SDS011;5402;50.004;8.246;2023-06-10T00:39:21;7.03;;;6.10;;
10701;SDS011;5402;50.004;8.246;2023-06-10T00:41:47;7.15;;;6.45;;
10701;SDS011;5402;50.004;8.246;2023-06-10T00:44:14;7.35;;;6.65;;
10701;SDS011;5402;50.004;8.246;2023-06-10T00:46:42;7.35;;;6.50;;
10701;SDS011;5402;50.004;8.246;2023-06-10T00:49:09;6.50;;;5.88;;
10701;SDS011;5402;50.004;8.246;2023-06-10T00:51:37;7.53;;;6.75;;
10701;SDS011;5402;50.004;8.246;2023-06-10T00:54:04;7.47;;;6.65;;
10701;SDS011;5402;50.004;8.246;2023-06-10T00:56:33;8.77;;;6.80;;
10701;SDS011;5402;50.004;8.246;2023-06-10T00:59:00;7.43;;;6.40;;
10701;SDS011;5402;50.004;8.246;2023-06-10T01:01:27;7.85;;;7.15;;
10701;SDS011;5402;50.004;8.246;2023-06-10T01:03:54;7.38;;;6.47;;
10701;SDS011;5402;50.004;8.246;2023-06-10T01:06:24;6.47;;;5.88;;
10701;SDS011;5402;50.004;8.246;2023-06-10T01:09:03;7.38;;;6.68;;
10701;SDS011;5402;50.004;8.246;2023-06-10T01:11:40;7.10;;;6.40;;
10701;SDS011;5402;50.004;8.246;2023-06-10T01:14:10;6.88;;;6.20;;
10701;SDS011;5402;50.004;8.246;2023-06-10T01:16:37;6.75;;;6.13;;
10701;SDS011;5402;50.004;8.246;2023-06-10T01:19:05;7.47;;;5.90;;
10701;SDS011;5402;50.004;8.246;2023-06-10T01:21:34;7.25;;;6.55;;
10701;SDS011;5402;50.004;8.246;2023-06-10T01:24:01;7.53;;;6.72;;
10701;SDS011;5402;50.004;8.246;2023-06-10T01:26:29;8.30;;;6.38;;
10701;SDS011;5402;50.004;8.246;2023-06-10T01:28:58;7.70;;;6.90;;
10701;SDS011;5402;50.004;8.246;2023-06-10T01:31:31;8.88;;;6.50;;
10701;SDS011;5402;50.004;8.246;2023-06-10T01:34:05;7.28;;;6.50;;
10701;SDS011;5402;50.004;8.246;2023-06-10T01:36:37;6.75;;;6.15;;
10701;SDS011;5402;50.004;8.246;2023-06-10T01:39:06;6.80;;;5.88;;
10701;SDS011;5402;50.004;8.246;2023-06-10T01:41:36;8.27;;;6.88;;
10701;SDS011;5402;50.004;8.246;2023-06-10T01:44:04;6.82;;;6.18;;
10701;SDS011;5402;50.004;8.246;2023-06-10T01:46:30;8.25;;;6.63;;
10701;SDS011;5402;50.004;8.246;2023-06-10T01:48:57;6.75;;;6.13;;
10701;SDS011;5402;50.004;8.246;2023-06-10T01:51:24;6.70;;;6.10;;
10701;SDS011;5402;50.004;8.246;2023-06-10T01:53:52;8.38;;;6.63;;
10701;SDS011;5402;50.004;8.246;2023-06-10T01:56:19;8.75;;;6.85;;
10701;SDS011;5402;50.004;8.246;2023-06-10T01:58:46;8.00;;;6.30;;
10701;SDS011;5402;50.004;8.246;2023-06-10T02:01:13;7.70;;;6.40;;
10701;SDS011;5402;50.004;8.246;2023-06-10T02:03:39;7.43;;;6.70;;
10701;SDS011;5402;50.004;8.246;2023-06-10T02:06:06;8.85;;;6.18;;
10701;SDS011;5402;50.004;8.246;2023-06-10T02:08:33;7.47;;;6.43;;
10701;SDS011;5402;50.004;8.246;2023-06-10T02:11:01;8.38;;;6.53;;
10701;SDS011;5402;50.004;8.246;2023-06-10T02:13:28;7.28;;;5.95;;
10701;SDS011;5402;50.004;8.246;2023-06-10T02:15:54;6.38;;;5.78;;
10701;SDS011;5402;50.004;8.246;2023-06-10T02:18:21;7.85;;;6.07;;
10701;SDS011;5402;50.004;8.246;2023-06-10T02:20:48;6.70;;;6.00;;
10701;SDS011;5402;50.004;8.246;2023-06-10T02:23:14;7.15;;;6.43;;
10701;SDS011;5402;50.004;8.246;2023-06-10T02:25:41;7.65;;;5.97;;
10701;SDS011;5402;50.004;8.246;2023-06-10T02:28:13;6.22;;;5.50;;
10701;SDS011;5402;50.004;8.246;2023-06-10T02:30:40;6.43;;;5.82;;
10701;SDS011;5402;50.004;8.246;2023-06-10T02:33:07;6.72;;;6.10;;
10701;SDS011;5402;50.004;8.246;2023-06-10T02:35:36;6.85;;;5.97;;
10701;SDS011;5402;50.004;8.246;2023-06-10T02:38:02;6.57;;;5.88;;
10701;SDS011;5402;50.004;8.246;2023-06-10T02:40:30;6.88;;;6.18;;
10701;SDS011;5402;50.004;8.246;2023-06-10T02:42:56;6.72;;;5.82;;
10701;SDS011;5402;50.004;8.246;2023-06-10T02:45:25;6.75;;;6.10;;
10701;SDS011;5402;50.004;8.246;2023-06-10T02:47:51;7.78;;;6.10;;
10701;SDS011;5402;50.004;8.246;2023-06-10T02:50:18;6.75;;;5.80;;
10701;SDS011;5402;50.004;8.246;2023-06-10T02:52:45;7.03;;;6.32;;
10701;SDS011;5402;50.004;8.246;2023-06-10T02:55:12;7.13;;;6.43;;
10701;SDS011;5402;50.004;8.246;2023-06-10T02:57:38;8.15;;;6.03;;
10701;SDS011;5402;50.004;8.246;2023-06-10T03:00:06;8.87;;;6.30;;
10701;SDS011;5402;50.004;8.246;2023-06-10T03:02:37;7.37;;;6.57;;
10701;SDS011;5402;50.004;8.246;2023-06-10T03:05:04;7.40;;;5.70;;
10701;SDS011;5402;50.004;8.246;2023-06-10T03:07:34;7.43;;;5.93;;
10701;SDS011;5402;50.004;8.246;2023-06-10T03:10:01;6.33;;;5.73;;
10701;SDS011;5402;50.004;8.246;2023-06-10T03:12:28;7.23;;;6.63;;
10701;SDS011;5402;50.004;8.246;2023-06-10T03:14:55;6.50;;;5.90;;
10701;SDS011;5402;50.004;8.246;2023-06-10T03:17:22;7.38;;;6.28;;
10701;SDS011;5402;50.004;8.246;2023-06-10T03:19:50;7.43;;;6.47;;
10701;SDS011;5402;50.004;8.246;2023-06-10T03:22:17;6.70;;;5.70;;
10701;SDS011;5402;50.004;8.246;2023-06-10T03:24:43;9.07;;;5.77;;
10701;SDS011;5402;50.004;8.246;2023-06-10T03:27:11;6.50;;;5.80;;
10701;SDS011;5402;50.004;8.246;2023-06-10T03:29:38;6.27;;;5.67;;
10701;SDS011;5402;50.004;8.246;2023-06-10T03:32:06;6.80;;;6.10;;
10701;SDS011;5402;50.004;8.246;2023-06-10T03:34:33;6.90;;;5.63;;
10701;SDS011;5402;50.004;8.246;2023-06-10T03:37:01;6.60;;;5.67;;
10701;SDS011;5402;50.004;8.246;2023-06-10T03:39:28;7.43;;;5.93;;
10701;SDS011;5402;50.004;8.246;2023-06-10T03:41:55;6.07;;;5.50;;
10701;SDS011;5402;50.004;8.246;2023-06-10T03:44:22;5.80;;;5.30;;
10701;SDS011;5402;50.004;8.246;2023-06-10T03:46:50;6.17;;;5.63;;
10701;SDS011;5402;50.004;8.246;2023-06-10T03:49:18;6.50;;;5.30;;
10701;SDS011;5402;50.004;8.246;2023-06-10T03:51:44;7.40;;;5.80;;
10701;SDS011;5402;50.004;8.246;2023-06-10T03:54:12;7.73;;;5.60;;
10701;SDS011;5402;50.004;8.246;2023-06-10T03:56:39;7.47;;;5.70;;
10701;SDS011;5402;50.004;8.246;2023-06-10T03:59:06;6.53;;;5.33;;
10701;SDS011;5402;50.004;8.246;2023-06-10T04:01:32;7.00;;;5.97;;
10701;SDS011;5402;50.004;8.246;2023-06-10T04:04:00;7.53;;;5.80;;
10701;SDS011;5402;50.004;8.246;2023-06-10T04:06:27;5.90;;;5.40;;
10701;SDS011;5402;50.004;8.246;2023-06-10T04:08:54;6.33;;;5.73;;
10701;SDS011;5402;50.004;8.246;2023-06-10T04:11:23;8.80;;;5.67;;
10701;SDS011;5402;50.004;8.246;2023-06-10T04:13:50;6.40;;;5.80;;
10701;SDS011;5402;50.004;8.246;2023-06-10T04:16:17;7.00;;;6.00;;
10701;SDS011;5402;50.004;8.246;2023-06-10T04:18:44;5.53;;;5.03;;
10701;SDS011;5402;50.004;8.246;2023-06-10T04:21:10;6.77;;;5.80;;
10701;SDS011;5402;50.004;8.246;2023-06-10T04:23:37;8.00;;;6.20;;
10701;SDS011;5402;50.004;8.246;2023-06-10T04:26:04;6.77;;;6.07;;
10701;SDS011;5402;50.004;8.246;2023-06-10T04:28:33;6.47;;;5.80;;
10701;SDS011;5402;50.004;8.246;2023-06-10T04:31:01;7.10;;;6.40;;
10701;SDS011;5402;50.004;8.246;2023-06-10T04:33:29;12.55;;;6.03;;
10701;SDS011;5402;50.004;8.246;2023-06-10T04:35:55;8.27;;;6.55;;
10701;SDS011;5402;50.004;8.246;2023-06-10T04:38:22;8.88;;;5.70;;
10701;SDS011;5402;50.004;8.246;2023-06-10T04:40:49;7.70;;;6.10;;
10701;SDS011;5402;50.004;8.246;2023-06-10T04:43:15;6.28;;;5.63;;
10701;SDS011;5402;50.004;8.246;2023-06-10T04:45:43;7.18;;;5.97;;
10701;SDS011;5402;50.004;8.246;2023-06-10T04:48:10;8.27;;;6.35;;
10701;SDS011;5402;50.004;8.246;2023-06-10T04:50:37;7.15;;;5.80;;
10701;SDS011;5402;50.004;8.246;2023-06-10T04:53:04;7.93;;;6.38;;
10701;SDS011;5402;50.004;8.246;2023-06-10T04:55:31;7.70;;;5.95;;
10701;SDS011;5402;50.004;8.246;2023-06-10T04:57:58;6.78;;;5.82;;
10701;SDS011;5402;50.004;8.246;2023-06-10T05:00:25;6.32;;;5.72;;
10701;SDS011;5402;50.004;8.246;2023-06-10T05:02:53;7.07;;;6.38;;
10701;SDS011;5402;50.004;8.246;2023-06-10T05:05:21;7.53;;;5.40;;
10701;SDS011;5402;50.004;8.246;2023-06-10T05:07:47;9.23;;;6.90;;
10701;SDS011;5402;50.004;8.246;2023-06-10T05:10:14;6.88;;;6.15;;
10701;SDS011;5402;50.004;8.246;2023-06-10T05:12:41;7.30;;;6.40;;
10701;SDS011;5402;50.004;8.246;2023-06-10T05:15:08;7.95;;;6.40;;
10701;SDS011;5402;50.004;8.246;2023-06-10T05:17:35;8.63;;;6.22;;
10701;SDS011;5402;50.004;8.246;2023-06-10T05:20:03;7.97;;;6.10;;
10701;SDS011;5402;50.004;8.246;2023-06-10T05:22:31;7.75;;;6.35;;
10701;SDS011;5402;50.004;8.246;2023-06-10T05:24:58;8.15;;;6.20;;
10701;SDS011;5402;50.004;8.246;2023-06-10T05:27:24;7.13;;;5.45;;
10701;SDS011;5402;50.004;8.246;2023-06-10T05:29:51;7.35;;;6.03;;
10701;SDS011;5402;50.004;8.246;2023-06-10T05:32:18;6.70;;;5.40;;
10701;SDS011;5402;50.004;8.246;2023-06-10T05:34:44;9.20;;;5.78;;
10701;SDS011;5402;50.004;8.246;2023-06-10T05:37:13;7.82;;;5.55;;
10701;SDS011;5402;50.004;8.246;2023-06-10T05:39:39;8.40;;;5.53;;
10701;SDS011;5402;50.004;8.246;2023-06-10T05:42:06;7.15;;;5.20;;
10701;SDS011;5402;50.004;8.246;2023-06-10T05:44:34;7.45;;;5.93;;
10701;SDS011;5402;50.004;8.246;2023-06-10T05:47:01;7.70;;;5.60;;
10701;SDS011;5402;50.004;8.246;2023-06-10T05:49:27;8.65;;;5.75;;
10701;SDS011;5402;50.004;8.246;2023-06-10T05:51:54;7.10;;;5.15;;
10701;SDS011;5402;50.004;8.246;2023-06-10T05:54:24;5.57;;;5.07;;
10701;SDS011;5402;50.004;8.246;2023-06-10T05:56:51;6.13;;;5.32;;
10701;SDS011;5402;50.004;8.246;2023-06-10T05:59:18;5.47;;;4.97;;
10701;SDS011;5402;50.004;8.246;2023-06-10T06:01:44;7.55;;;5.35;;
10701;SDS011;5402;50.004;8.246;2023-06-10T06:04:12;8.20;;;5.88;;
10701;SDS011;5402;50.004;8.246;2023-06-10T06:06:39;6.78;;;5.07;;
10701;SDS011;5402;50.004;8.246;2023-06-10T06:09:06;6.70;;;5.35;;
10701;SDS011;5402;50.004;8.246;2023-06-10T06:11:34;6.22;;;5.63;;
10701;SDS011;5402;50.004;8.246;2023-06-10T06:14:01;6.80;;;5.03;;
10701;SDS011;5402;50.004;8.246;2023-06-10T06:16:28;5.47;;;4.97;;
10701;SDS011;5402;50.004;8.246;2023-06-10T06:18:54;7.50;;;5.40;;
10701;SDS011;5402;50.004;8.246;2023-06-10T06:21:21;6.07;;;5.47;;
10701;SDS011;5402;50.004;8.246;2023-06-10T06:23:48;8.02;;;5.40;;
10701;SDS011;5402;50.004;8.246;2023-06-10T06:26:14;5.78;;;5.00;;
10701;SDS011;5402;50.004;8.246;2023-06-10T06:28:43;5.30;;;4.80;;
10701;SDS011;5402;50.004;8.246;2023-06-10T06:31:09;7.30;;;5.57;;
10701;SDS011;5402;50.004;8.246;2023-06-10T06:33:36;5.70;;;5.05;;
10701;SDS011;5402;50.004;8.246;2023-06-10T06:36:03;6.63;;;5.63;;
10701;SDS011;5402;50.004;8.246;2023-06-10T06:38:30;6.10;;;5.50;;
10701;SDS011;5402;50.004;8.246;2023-06-10T06:40:56;6.60;;;5.53;;
10701;SDS011;5402;50.004;8.246;2023-06-10T06:43:27;6.05;;;5.45;;
10701;SDS011;5402;50.004;8.246;2023-06-10T06:45:56;5.95;;;5.35;;
10701;SDS011;5402;50.004;8.246;2023-06-10T06:48:23;5.78;;;5.28;;
10701;SDS011;5402;50.004;8.246;2023-06-10T06:50:50;7.43;;;5.55;;
10701;SDS011;5402;50.004;8.246;2023-06-10T06:53:16;6.53;;;5.85;;
10701;SDS011;5402;50.004;8.246;2023-06-10T06:55:43;6.30;;;5.72;;
10701;SDS011;5402;50.004;8.246;2023-06-10T06:58:10;6.32;;;5.63;;
10701;SDS011;5402;50.004;8.246;2023-06-10T07:00:37;6.22;;;5.63;;
10701;SDS011;5402;50.004;8.246;2023-06-10T07:03:05;6.10;;;5.13;;
10701;SDS011;5402;50.004;8.246;2023-06-10T07:05:31;6.82;;;5.63;;
10701;SDS011;5402;50.004;8.246;2023-06-10T07:07:58;6.47;;;5.88;;
10701;SDS011;5402;50.004;8.246;2023-06-10T07:10:25;5.80;;;5.30;;
10701;SDS011;5402;50.004;8.246;2023-06-10T07:12:52;7.43;;;5.63;;
10701;SDS011;5402;50.004;8.246;2023-06-10T07:15:19;6.63;;;5.72;;
10701;SDS011;5402;50.004;8.246;2023-06-10T07:17:46;7.07;;;5.35;;
10701;SDS011;5402;50.004;8.246;2023-06-10T07:20:14;6.28;;;5.68;;
10701;SDS011;5402;50.004;8.246;2023-06-10T07:22:41;6.10;;;5.50;;
10701;SDS011;5402;50.004;8.246;2023-06-10T07:25:08;6.45;;;5.85;;
10701;SDS011;5402;50.004;8.246;2023-06-10T07:27:35;7.22;;;5.80;;
10701;SDS011;5402;50.004;8.246;2023-06-10T07:30:02;9.15;;;5.97;;
10701;SDS011;5402;50.004;8.246;2023-06-10T07:32:29;7.07;;;5.60;;
10701;SDS011;5402;50.004;8.246;2023-06-10T07:34:56;6.40;;;5.80;;
10701;SDS011;5402;50.004;8.246;2023-06-10T07:37:24;6.90;;;5.90;;
10701;SDS011;5402;50.004;8.246;2023-06-10T07:39:51;12.60;;;5.70;;
10701;SDS011;5402;50.004;8.246;2023-06-10T07:42:17;6.40;;;5.80;;
10701;SDS011;5402;50.004;8.246;2023-06-10T07:44:44;6.90;;;5.80;;
10701;SDS011;5402;50.004;8.246;2023-06-10T07:47:11;7.90;;;6.63;;
10701;SDS011;5402;50.004;8.246;2023-06-10T07:49:38;8.15;;;6.20;;
10701;SDS011;5402;50.004;8.246;2023-06-10T07:52:05;6.82;;;6.22;;
10701;SDS011;5402;50.004;8.246;2023-06-10T07:54:34;6.60;;;5.88;;
10701;SDS011;5402;50.004;8.246;2023-06-10T07:57:01;6.63;;;6.03;;
10701;SDS011;5402;50.004;8.246;2023-06-10T07:59:28;6.75;;;6.05;;
10701;SDS011;5402;50.004;8.246;2023-06-10T08:01:54;8.00;;;6.03;;
10701;SDS011;5402;50.004;8.246;2023-06-10T08:04:21;7.57;;;6.72;;
10701;SDS011;5402;50.004;8.246;2023-06-10T08:06:48;7.15;;;6.05;;
10701;SDS011;5402;50.004;8.246;2023-06-10T08:09:15;7.03;;;6.15;;
10701;SDS011;5402;50.004;8.246;2023-06-10T08:11:44;6.90;;;6.18;;
10701;SDS011;5402;50.004;8.246;2023-06-10T08:14:13;7.10;;;5.88;;
10701;SDS011;5402;50.004;8.246;2023-06-10T08:16:39;7.05;;;5.78;;
10701;SDS011;5402;50.004;8.246;2023-06-10T08:19:07;7.50;;;6.65;;
10701;SDS011;5402;50.004;8.246;2023-06-10T08:21:34;7.95;;;5.78;;
10701;SDS011;5402;50.004;8.246;2023-06-10T08:24:02;7.20;;;5.97;;
10701;SDS011;5402;50.004;8.246;2023-06-10T08:26:29;11.32;;;6.32;;
10701;SDS011;5402;50.004;8.246;2023-06-10T08:28:57;7.07;;;6.38;;
10701;SDS011;5402;50.004;8.246;2023-06-10T08:31:26;7.43;;;6.70;;
10701;SDS011;5402;50.004;8.246;2023-06-10T08:33:53;8.10;;;6.60;;
10701;SDS011;5402;50.004;8.246;2023-06-10T08:36:20;7.78;;;6.63;;
10701;SDS011;5402;50.004;8.246;2023-06-10T08:38:47;7.18;;;6.47;;
10701;SDS011;5402;50.004;8.246;2023-06-10T08:41:14;7.13;;;6.45;;
10701;SDS011;5402;50.004;8.246;2023-06-10T08:43:46;7.63;;;6.82;;
10701;SDS011;5402;50.004;8.246;2023-06-10T08:46:20;7.70;;;6.63;;
10701;SDS011;5402;50.004;8.246;2023-06-10T08:48:47;8.40;;;6.30;;
10701;SDS011;5402;50.004;8.246;2023-06-10T08:51:19;7.75;;;6.57;;
10701;SDS011;5402;50.004;8.246;2023-06-10T08:53:50;8.60;;;7.30;;
10701;SDS011;5402;50.004;8.246;2023-06-10T08:56:23;8.13;;;6.55;;
10701;SDS011;5402;50.004;8.246;2023-06-10T08:58:52;6.80;;;6.15;;
10701;SDS011;5402;50.004;8.246;2023-06-10T09:01:21;6.53;;;5.85;;
10701;SDS011;5402;50.004;8.246;2023-06-10T09:03:49;8.32;;;6.00;;
10701;SDS011;5402;50.004;8.246;2023-06-10T09:06:16;8.15;;;6.30;;
10701;SDS011;5402;50.004;8.246;2023-06-10T09:08:44;6.85;;;6.18;;
10701;SDS011;5402;50.004;8.246;2023-06-10T09:11:11;7.22;;;6.53;;
10701;SDS011;5402;50.004;8.246;2023-06-10T09:13:38;8.68;;;6.38;;
10701;SDS011;5402;50.004;8.246;2023-06-10T09:16:05;7.22;;;6.50;;
10701;SDS011;5402;50.004;8.246;2023-06-10T09:18:33;6.28;;;5.78;;
10701;SDS011;5402;50.004;8.246;2023-06-10T09:21:00;7.53;;;6.25;;
10701;SDS011;5402;50.004;8.246;2023-06-10T09:23:28;7.53;;;6.10;;
10701;SDS011;5402;50.004;8.246;2023-06-10T09:25:58;6.93;;;6.20;;
10701;SDS011;5402;50.004;8.246;2023-06-10T09:28:25;6.32;;;5.82;;
10701;SDS011;5402;50.004;8.246;2023-06-10T09:31:02;7.18;;;6.47;;
10701;SDS011;5402;50.004;8.246;2023-06-10T09:33:30;6.90;;;6.30;;
10701;SDS011;5402;50.004;8.246;2023-06-10T09:36:01;6.82;;;6.00;;
10701;SDS011;5402;50.004;8.246;2023-06-10T09:38:32;6.90;;;6.25;;
10701;SDS011;5402;50.004;8.246;2023-06-10T09:40:59;7.00;;;6.30;;
10701;SDS011;5402;50.004;8.246;2023-06-10T09:43:38;7.30;;;6.57;;
10701;SDS011;5402;50.004;8.246;2023-06-10T09:46:05;6.43;;;5.88;;
10701;SDS011;5402;50.004;8.246;2023-06-10T09:48:34;8.10;;;6.28;;
10701;SDS011;5402;50.004;8.246;2023-06-10T09:51:03;7.38;;;5.43;;
10701;SDS011;5402;50.004;8.246;2023-06-10T09:53:36;8.63;;;6.03;;
10701;SDS011;5402;50.004;8.246;2023-06-10T09:56:03;6.93;;;6.30;;
10701;SDS011;5402;50.004;8.246;2023-06-10T09:58:34;7.13;;;6.32;;
10701;SDS011;5402;50.004;8.246;2023-06-10T10:01:04;6.95;;;6.32;;
10701;SDS011;5402;50.004;8.246;2023-06-10T10:03:31;6.53;;;5.93;;
10701;SDS011;5402;50.004;8.246;2023-06-10T10:05:58;6.55;;;5.95;;
10701;SDS011;5402;50.004;8.246;2023-06-10T10:08:27;7.03;;;6.35;;
10701;SDS011;5402;50.004;8.246;2023-06-10T10:10:55;6.90;;;6.30;;
10701;SDS011;5402;50.004;8.246;2023-06-10T10:13:23;7.00;;;6.35;;
10701;SDS011;5402;50.004;8.246;2023-06-10T10:15:51;6.68;;;6.07;;
10701;SDS011;5402;50.004;8.246;2023-06-10T10:18:19;8.55;;;6.38;;
10701;SDS011;5402;50.004;8.246;2023-06-10T10:20:53;6.85;;;6.25;;
10701;SDS011;5402;50.004;8.246;2023-06-10T10:23:21;7.63;;;6.20;;
10701;SDS011;5402;50.004;8.246;2023-06-10T10:25:54;7.18;;;6.47;;
10701;SDS011;5402;50.004;8.246;2023-06-10T10:28:21;7.05;;;6.35;;
10701;SDS011;5402;50.004;8.246;2023-06-10T10:30:52;8.50;;;6.38;;
10701;SDS011;5402;50.004;8.246;2023-06-10T10:33:27;6.80;;;6.18;;
10701;SDS011;5402;50.004;8.246;2023-06-10T10:35:59;7.20;;;6.30;;
10701;SDS011;5402;50.004;8.246;2023-06-10T10:38:27;8.98;;;6.47;;
10701;SDS011;5402;50.004;8.246;2023-06-10T10:40:55;6.57;;;5.97;;
10701;SDS011;5402;50.004;8.246;2023-06-10T10:43:24;7.10;;;6.05;;
10701;SDS011;5402;50.004;8.246;2023-06-10T10:45:57;9.32;;;6.20;;
10701;SDS011;5402;50.004;8.246;2023-06-10T10:48:25;8.32;;;6.57;;
10701;SDS011;5402;50.004;8.246;2023-06-10T10:50:56;7.82;;;6.65;;
10701;SDS011;5402;50.004;8.246;2023-06-10T10:53:24;6.82;;;6.05;;
10701;SDS011;5402;50.004;8.246;2023-06-10T10:55:59;6.97;;;6.35;;
10701;SDS011;5402;50.004;8.246;2023-06-10T10:58:30;6.97;;;6.38;;
10701;SDS011;5402;50.004;8.246;2023-06-10T11:00:57;7.07;;;6.47;;
10701;SDS011;5402;50.004;8.246;2023-06-10T11:03:27;8.07;;;6.07;;
10701;SDS011;5402;50.004;8.246;2023-06-10T11:05:56;6.55;;;5.88;;
10701;SDS011;5402;50.004;8.246;2023-06-10T11:11:20;8.55;;;6.00;;
10701;SDS011;5402;50.004;8.246;2023-06-10T11:14:05;6.38;;;5.78;;
10701;SDS011;5402;50.004;8.246;2023-06-10T11:16:43;7.47;;;5.85;;
10701;SDS011;5402;50.004;8.246;2023-06-10T11:19:10;6.68;;;6.03;;
10701;SDS011;5402;50.004;8.246;2023-06-10T11:22:01;6.47;;;5.88;;
10701;SDS011;5402;50.004;8.246;2023-06-10T11:24:30;6.13;;;5.63;;
10701;SDS011;5402;50.004;8.246;2023-06-10T11:29:55;6.82;;;6.22;;
10701;SDS011;5402;50.004;8.246;2023-06-10T11:32:43;6.60;;;6.00;;
10701;SDS011;5402;50.004;8.246;2023-06-10T11:35:11;7.22;;;6.53;;
10701;SDS011;5402;50.004;8.246;2023-06-10T11:37:38;6.25;;;5.65;;
10701;SDS011;5402;50.004;8.246;2023-06-10T11:40:06;6.32;;;5.72;;
10701;SDS011;5402;50.004;8.246;2023-06-10T11:42:38;6.50;;;6.00;;
10701;SDS011;5402;50.004;8.246;2023-06-10T11:45:06;8.05;;;6.43;;
10701;SDS011;5402;50.004;8.246;2023-06-10T11:47:34;6.50;;;5.78;;
10701;SDS011;5402;50.004;8.246;2023-06-10T11:50:01;9.98;;;5.80;;
10701;SDS011;5402;50.004;8.246;2023-06-10T11:52:33;6.45;;;5.85;;
10701;SDS011;5402;50.004;8.246;2023-06-10T11:55:05;6.38;;;5.70;;
10701;SDS011;5402;50.004;8.246;2023-06-10T11:57:33;6.00;;;5.50;;
10701;SDS011;5402;50.004;8.246;2023-06-10T12:00:03;6.30;;;5.78;;
10701;SDS011;5402;50.004;8.246;2023-06-10T12:02:31;6.60;;;6.00;;
10701;SDS011;5402;50.004;8.246;2023-06-10T12:05:09;6.22;;;5.63;;
10701;SDS011;5402;50.004;8.246;2023-06-10T12:07:39;5.75;;;5.25;;
10701;SDS011;5402;50.004;8.246;2023-06-10T12:10:06;8.18;;;5.70;;
10701;SDS011;5402;50.004;8.246;2023-06-10T12:12:34;7.25;;;5.70;;
10701;SDS011;5402;50.004;8.246;2023-06-10T12:15:01;6.47;;;5.28;;
10701;SDS011;5402;50.004;8.246;2023-06-10T12:17:37;7.53;;;5.72;;
10701;SDS011;5402;50.004;8.246;2023-06-10T12:20:05;5.90;;;5.15;;
10701;SDS011;5402;50.004;8.246;2023-06-10T12:22:36;5.22;;;4.80;;
10701;SDS011;5402;50.004;8.246;2023-06-10T12:25:05;6.20;;;5.35;;
10701;SDS011;5402;50.004;8.246;2023-06-10T12:27:33;5.85;;;5.35;;
10701;SDS011;5402;50.004;8.246;2023-06-10T12:30:02;6.95;;;5.68;;
10701;SDS011;5402;50.004;8.246;2023-06-10T12:32:37;5.57;;;5.05;;
10701;SDS011;5402;50.004;8.246;2023-06-10T12:35:06;6.13;;;5.28;;
10701;SDS011;5402;50.004;8.246;2023-06-10T12:37:34;5.65;;;5.13;;
10701;SDS011;5402;50.004;8.246;2023-06-10T12:40:04;5.72;;;4.90;;
10701;SDS011;5402;50.004;8.246;2023-06-10T12:42:33;5.68;;;4.82;;
10701;SDS011;5402;50.004;8.246;2023-06-10T12:45:02;7.72;;;5.47;;
10701;SDS011;5402;50.004;8.246;2023-06-10T12:47:32;5.20;;;4.80;;
10701;SDS011;5402;50.004;8.246;2023-06-10T12:50:04;5.63;;;4.55;;
10701;SDS011;5402;50.004;8.246;2023-06-10T12:52:31;5.30;;;4.80;;
10701;SDS011;5402;50.004;8.246;2023-06-10T12:54:58;5.50;;;4.85;;
10701;SDS011;5402;50.004;8.246;2023-06-10T12:57:28;5.38;;;4.85;;
10701;SDS011;5402;50.004;8.246;2023-06-10T12:59:56;5.78;;;4.80;;
10701;SDS011;5402;50.004;8.246;2023-06-10T13:02:28;5.93;;;4.95;;
10701;SDS011;5402;50.004;8.246;2023-06-10T13:04:55;6.72;;;4.65;;
10701;SDS011;5402;50.004;8.246;2023-06-10T13:07:22;4.90;;;4.50;;
10701;SDS011;5402;50.004;8.246;2023-06-10T13:09:49;5.25;;;4.70;;
10701;SDS011;5402;50.004;8.246;2023-06-10T13:12:16;5.50;;;5.00;;
10701;SDS011;5402;50.004;8.246;2023-06-10T13:14:45;7.03;;;5.00;;
10701;SDS011;5402;50.004;8.246;2023-06-10T13:17:11;6.03;;;5.13;;
10701;SDS011;5402;50.004;8.246;2023-06-10T13:19:38;6.05;;;5.10;;
10701;SDS011;5402;50.004;8.246;2023-06-10T13:22:05;5.38;;;4.88;;
10701;SDS011;5402;50.004;8.246;2023-06-10T13:24:32;5.07;;;4.43;;
10701;SDS011;5402;50.004;8.246;2023-06-10T13:26:58;5.10;;;4.70;;
10701;SDS011;5402;50.004;8.246;2023-06-10T13:29:25;5.43;;;4.93;;
10701;SDS011;5402;50.004;8.246;2023-06-10T13:31:53;5.32;;;4.82;;
10701;SDS011;5402;50.004;8.246;2023-06-10T13:34:20;5.00;;;4.60;;
10701;SDS011;5402;50.004;8.246;2023-06-10T13:36:46;5.75;;;5.25;;
10701;SDS011;5402;50.004;8.246;2023-06-10T13:39:13;7.25;;;4.90;;
10701;SDS011;5402;50.004;8.246;2023-06-10T13:41:40;5.18;;;4.68;;
10701;SDS011;5402;50.004;8.246;2023-06-10T13:44:07;7.30;;;5.55;;
10701;SDS011;5402;50.004;8.246;2023-06-10T13:46:34;6.60;;;5.50;;
10701;SDS011;5402;50.004;8.246;2023-06-10T13:49:02;6.57;;;5.40;;
10701;SDS011;5402;50.004;8.246;2023-06-10T13:51:28;5.93;;;5.40;;
10701;SDS011;5402;50.004;8.246;2023-06-10T13:53:55;7.75;;;5.10;;
10701;SDS011;5402;50.004;8.246;2023-06-10T13:56:22;5.40;;;4.90;;
10701;SDS011;5402;50.004;8.246;2023-06-10T13:58:49;6.57;;;4.97;;
10701;SDS011;5402;50.004;8.246;2023-06-10T14:01:15;5.88;;;5.28;;
10701;SDS011;5402;50.004;8.246;2023-06-10T14:03:42;5.70;;;5.20;;
10701;SDS011;5402;50.004;8.246;2023-06-10T14:06:10;5.40;;;5.00;;
10701;SDS011;5402;50.004;8.246;2023-06-10T14:08:40;7.30;;;4.93;;
10701;SDS011;5402;50.004;8.246;2023-06-10T14:11:07;5.13;;;4.65;;
10701;SDS011;5402;50.004;8.246;2023-06-10T14:13:34;7.82;;;5.60;;
10701;SDS011;5402;50.004;8.246;2023-06-10T14:16:03;6.00;;;5.32;;
10701;SDS011;5402;50.004;8.246;2023-06-10T14:18:30;9.55;;;5.78;;
10701;SDS011;5402;50.004;8.246;2023-06-10T14:20:57;5.55;;;5.05;;
10701;SDS011;5402;50.004;8.246;2023-06-10T14:23:25;5.72;;;4.97;;
10701;SDS011;5402;50.004;8.246;2023-06-10T14:25:51;5.65;;;5.15;;
10701;SDS011;5402;50.004;8.246;2023-06-10T14:28:18;5.70;;;5.20;;
10701;SDS011;5402;50.004;8.246;2023-06-10T14:30:45;7.55;;;5.18;;
10701;SDS011;5402;50.004;8.246;2023-06-10T14:33:12;6.22;;;5.30;;
10701;SDS011;5402;50.004;8.246;2023-06-10T14:35:39;5.57;;;5.07;;
10701;SDS011;5402;50.004;8.246;2023-06-10T14:38:07;6.55;;;5.43;;
10701;SDS011;5402;50.004;8.246;2023-06-10T14:40:36;5.95;;;5.03;;
10701;SDS011;5402;50.004;8.246;2023-06-10T14:43:02;5.65;;;4.88;;
10701;SDS011;5402;50.004;8.246;2023-06-10T14:45:34;6.13;;;5.47;;
10701;SDS011;5402;50.004;8.246;2023-06-10T14:48:02;6.32;;;5.55;;
10701;SDS011;5402;50.004;8.246;2023-06-10T14:50:28;5.55;;;5.05;;
10701;SDS011;5402;50.004;8.246;2023-06-10T14:52:55;5.55;;;5.05;;
10701;SDS011;5402;50.004;8.246;2023-06-10T14:55:22;5.68;;;5.10;;
10701;SDS011;5402;50.004;8.246;2023-06-10T14:57:50;6.05;;;5.45;;
10701;SDS011;5402;50.004;8.246;2023-06-10T15:00:17;6.78;;;5.43;;
10701;SDS011;5402;50.004;8.246;2023-06-10T15:02:47;7.25;;;4.82;;
10701;SDS011;5402;50.004;8.246;2023-06-10T15:05:14;6.72;;;5.05;;
10701;SDS011;5402;50.004;8.246;2023-06-10T15:07:41;5.28;;;4.85;;
10701;SDS011;5402;50.004;8.246;2023-06-10T15:10:08;5.38;;;4.82;;